Terminal Aerodrome Forecast
Issued by NWS

Home | Current Version | Previous Version | Text Only | Print | Product List | Glossary On
Versions: 1 2 3 4 5 6 7 8 9 10 11 12 13 14 15 16 17 18 19 20 21 22 23 24 25 26 27 28
000
FTUS44 KHGX 221124
TAFLBX
TAF
KLBX 221124Z 2212/2312 01005KT P6SM SKC
      TEMPO 2212/2213 6SM BR
     FM221700 04007KT P6SM FEW035 SCT100
     FM222100 09006KT P6SM VCTS SCT050CB
     FM230200 01003KT P6SM SCT250=

USA.gov is the U.S. government's official web portal to all federal, state and local government web resources and services.